Portada
METAR-TAF:

METAR-TAF

Aeroports :

Rafha, Aràbia Saudita

latitud: 29-37N, longitud: 043-29E, altitud: 449 m

Observació

L'informe es va fer fa 20 minuts, a les 16:00 UTC
Vent 14 kt del Oest/Nord-Oest
Temperatura 15°C
Humitat 33%
Pressió 1018 hPa
Visibilitat 10 km o més
sense núvols per sota de 1500 mi sense presència de cumulonimbus.

METAR: OERF 201600Z 30014KT CAVOK 15/M01 Q1018

Hora: 19:20 (16:20 UTC)

Pronòstic

L'informe es va fer fa 5 hores i 20 minuts, a les 11:00 UTC
Pronòstic vàlid del 20 a les 12 UTC al 21 a les 18 UTC
Vent 18 kt del Oest
Visibilitat: 7000 m
Probabilitat 30% :
Temporalment
l' 20 a les 12 UTC al 20 a les 20 UTC
Visibilitat: 1500 m
torb alta de pols
Evolucionant progressivament
l' 20 a les 20 UTC al 20 a les 22 UTC
Vent 3 kt amb direcció variable

TAF: OERF 201100Z 2012/2118 28018KT 7000 NSC PROB30 TEMPO 2012/2020 1500 BLDU BECMG 2020/2022 VRB03KT

Observacions i pronòstics meteorològics de més de 4000 aeroports (METAR i TAF).

Les estacions disponibles són els punts grocs i vermells al mapa.

Posi el ratolí al punt desitjat per veure el nom de l'estació.

Feu clic per veure les observacions i els pronòstics meteorològics.

Per canviar el mapa: feu clic els botons verds amb una creu de color negre per apropar; al botó verd amb un guió per allunyar la imatge; o en les fletxes verdes per a mapes adjacents.


METAR-TAF: